sensor_id;sensor_type;location;lat;lon;timestamp;P1;durP1;ratioP1;P2;durP2;ratioP2
13291;SDS011;6714;53.056;8.690;2023-04-01T00:00:39;3.23;;;2.93;;
13291;SDS011;6714;53.056;8.690;2023-04-01T00:03:22;3.90;;;3.50;;
13291;SDS011;6714;53.056;8.690;2023-04-01T00:06:05;3.90;;;3.50;;
13291;SDS011;6714;53.056;8.690;2023-04-01T00:08:47;4.23;;;3.77;;
13291;SDS011;6714;53.056;8.690;2023-04-01T00:11:30;4.97;;;4.43;;
13291;SDS011;6714;53.056;8.690;2023-04-01T00:14:12;3.87;;;3.47;;
13291;SDS011;6714;53.056;8.690;2023-04-01T00:16:54;5.37;;;4.37;;
13291;SDS011;6714;53.056;8.690;2023-04-01T00:19:38;4.40;;;4.00;;
13291;SDS011;6714;53.056;8.690;2023-04-01T00:22:20;5.40;;;4.40;;
13291;SDS011;6714;53.056;8.690;2023-04-01T00:25:02;4.27;;;3.87;;
13291;SDS011;6714;53.056;8.690;2023-04-01T00:27:44;2.80;;;2.60;;
13291;SDS011;6714;53.056;8.690;2023-04-01T00:30:27;4.17;;;3.77;;
13291;SDS011;6714;53.056;8.690;2023-04-01T00:33:09;4.33;;;3.53;;
13291;SDS011;6714;53.056;8.690;2023-04-01T00:35:53;4.57;;;3.80;;
13291;SDS011;6714;53.056;8.690;2023-04-01T00:38:35;4.23;;;3.87;;
13291;SDS011;6714;53.056;8.690;2023-04-01T00:41:18;4.53;;;3.57;;
13291;SDS011;6714;53.056;8.690;2023-04-01T00:46:58;3.90;;;3.53;;
13291;SDS011;6714;53.056;8.690;2023-04-01T00:49:41;4.23;;;3.87;;
13291;SDS011;6714;53.056;8.690;2023-04-01T00:52:25;4.83;;;4.33;;
13291;SDS011;6714;53.056;8.690;2023-04-01T00:55:08;3.70;;;3.40;;
13291;SDS011;6714;53.056;8.690;2023-04-01T00:57:52;3.77;;;3.47;;
13291;SDS011;6714;53.056;8.690;2023-04-01T01:00:36;4.50;;;4.10;;
13291;SDS011;6714;53.056;8.690;2023-04-01T01:03:18;4.17;;;3.57;;
13291;SDS011;6714;53.056;8.690;2023-04-01T01:06:08;3.70;;;3.30;;
13291;SDS011;6714;53.056;8.690;2023-04-01T01:08:56;4.20;;;3.63;;
13291;SDS011;6714;53.056;8.690;2023-04-01T01:11:42;3.20;;;2.90;;
13291;SDS011;6714;53.056;8.690;2023-04-01T01:14:27;5.23;;;4.67;;
13291;SDS011;6714;53.056;8.690;2023-04-01T01:17:17;3.27;;;3.07;;
13291;SDS011;6714;53.056;8.690;2023-04-01T01:23:09;3.50;;;3.20;;
13291;SDS011;6714;53.056;8.690;2023-04-01T01:26:01;4.70;;;3.87;;
13291;SDS011;6714;53.056;8.690;2023-04-01T01:28:47;3.67;;;3.37;;
13291;SDS011;6714;53.056;8.690;2023-04-01T01:31:36;3.57;;;3.27;;
13291;SDS011;6714;53.056;8.690;2023-04-01T01:34:19;4.50;;;4.10;;
13291;SDS011;6714;53.056;8.690;2023-04-01T01:37:08;4.10;;;3.63;;
13291;SDS011;6714;53.056;8.690;2023-04-01T01:39:52;3.33;;;3.13;;
13291;SDS011;6714;53.056;8.690;2023-04-01T01:42:37;3.67;;;3.37;;
13291;SDS011;6714;53.056;8.690;2023-04-01T01:45:21;4.60;;;4.13;;
13291;SDS011;6714;53.056;8.690;2023-04-01T01:48:05;4.73;;;4.33;;
13291;SDS011;6714;53.056;8.690;2023-04-01T01:50:48;3.33;;;3.13;;
13291;SDS011;6714;53.056;8.690;2023-04-01T01:53:32;3.90;;;3.60;;
13291;SDS011;6714;53.056;8.690;2023-04-01T01:56:15;3.40;;;3.10;;
13291;SDS011;6714;53.056;8.690;2023-04-01T01:59:00;2.80;;;2.57;;
13291;SDS011;6714;53.056;8.690;2023-04-01T02:01:44;3.23;;;2.93;;
13291;SDS011;6714;53.056;8.690;2023-04-01T02:04:27;3.60;;;3.23;;
13291;SDS011;6714;53.056;8.690;2023-04-01T02:07:10;3.80;;;3.50;;
13291;SDS011;6714;53.056;8.690;2023-04-01T02:09:55;4.37;;;4.07;;
13291;SDS011;6714;53.056;8.690;2023-04-01T02:12:37;4.67;;;4.27;;
13291;SDS011;6714;53.056;8.690;2023-04-01T02:15:19;3.47;;;3.17;;
13291;SDS011;6714;53.056;8.690;2023-04-01T02:18:03;4.40;;;4.07;;
13291;SDS011;6714;53.056;8.690;2023-04-01T02:20:46;4.20;;;3.90;;
13291;SDS011;6714;53.056;8.690;2023-04-01T02:23:29;3.67;;;3.37;;
13291;SDS011;6714;53.056;8.690;2023-04-01T02:26:13;4.40;;;4.10;;
13291;SDS011;6714;53.056;8.690;2023-04-01T02:28:56;4.77;;;4.37;;
13291;SDS011;6714;53.056;8.690;2023-04-01T02:31:39;4.40;;;4.10;;
13291;SDS011;6714;53.056;8.690;2023-04-01T02:34:22;3.27;;;3.07;;
13291;SDS011;6714;53.056;8.690;2023-04-01T02:37:05;4.50;;;4.10;;
13291;SDS011;6714;53.056;8.690;2023-04-01T02:39:47;4.07;;;3.70;;
13291;SDS011;6714;53.056;8.690;2023-04-01T02:42:30;3.30;;;3.03;;
13291;SDS011;6714;53.056;8.690;2023-04-01T02:45:13;4.60;;;4.20;;
13291;SDS011;6714;53.056;8.690;2023-04-01T02:47:55;5.23;;;4.17;;
13291;SDS011;6714;53.056;8.690;2023-04-01T02:50:37;4.30;;;3.90;;
13291;SDS011;6714;53.056;8.690;2023-04-01T02:53:20;5.40;;;4.80;;
13291;SDS011;6714;53.056;8.690;2023-04-01T02:56:02;4.00;;;3.70;;
13291;SDS011;6714;53.056;8.690;2023-04-01T02:58:45;3.60;;;3.40;;
13291;SDS011;6714;53.056;8.690;2023-04-01T03:01:28;4.47;;;4.10;;
13291;SDS011;6714;53.056;8.690;2023-04-01T03:04:10;4.73;;;4.33;;
13291;SDS011;6714;53.056;8.690;2023-04-01T03:06:52;4.30;;;3.90;;
13291;SDS011;6714;53.056;8.690;2023-04-01T03:09:35;4.27;;;3.93;;
13291;SDS011;6714;53.056;8.690;2023-04-01T03:12:17;4.10;;;3.80;;
13291;SDS011;6714;53.056;8.690;2023-04-01T03:15:01;4.63;;;4.07;;
13291;SDS011;6714;53.056;8.690;2023-04-01T03:17:43;4.00;;;3.70;;
13291;SDS011;6714;53.056;8.690;2023-04-01T03:20:26;4.77;;;4.37;;
13291;SDS011;6714;53.056;8.690;2023-04-01T03:23:08;4.10;;;3.73;;
13291;SDS011;6714;53.056;8.690;2023-04-01T03:25:51;4.87;;;4.47;;
13291;SDS011;6714;53.056;8.690;2023-04-01T03:28:33;5.43;;;4.10;;
13291;SDS011;6714;53.056;8.690;2023-04-01T03:31:16;3.83;;;3.53;;
13291;SDS011;6714;53.056;8.690;2023-04-01T03:33:58;3.50;;;3.20;;
13291;SDS011;6714;53.056;8.690;2023-04-01T03:36:41;4.67;;;4.17;;
13291;SDS011;6714;53.056;8.690;2023-04-01T03:39:23;4.60;;;4.17;;
13291;SDS011;6714;53.056;8.690;2023-04-01T03:42:05;4.83;;;4.43;;
13291;SDS011;6714;53.056;8.690;2023-04-01T03:44:47;8.57;;;6.63;;
13291;SDS011;6714;53.056;8.690;2023-04-01T03:47:31;4.40;;;4.00;;
13291;SDS011;6714;53.056;8.690;2023-04-01T03:50:13;4.90;;;4.50;;
13291;SDS011;6714;53.056;8.690;2023-04-01T03:52:55;4.27;;;3.90;;
13291;SDS011;6714;53.056;8.690;2023-04-01T03:55:37;3.53;;;3.23;;
13291;SDS011;6714;53.056;8.690;2023-04-01T03:58:20;3.83;;;3.53;;
13291;SDS011;6714;53.056;8.690;2023-04-01T04:01:02;5.03;;;4.63;;
13291;SDS011;6714;53.056;8.690;2023-04-01T04:03:46;3.73;;;3.17;;
13291;SDS011;6714;53.056;8.690;2023-04-01T04:06:29;3.20;;;3.00;;
13291;SDS011;6714;53.056;8.690;2023-04-01T04:09:11;4.87;;;3.97;;
13291;SDS011;6714;53.056;8.690;2023-04-01T04:11:53;3.70;;;3.10;;
13291;SDS011;6714;53.056;8.690;2023-04-01T04:14:35;3.83;;;3.50;;
13291;SDS011;6714;53.056;8.690;2023-04-01T04:17:17;5.30;;;4.10;;
13291;SDS011;6714;53.056;8.690;2023-04-01T04:20:01;4.00;;;3.60;;
13291;SDS011;6714;53.056;8.690;2023-04-01T04:22:43;4.10;;;3.80;;
13291;SDS011;6714;53.056;8.690;2023-04-01T04:25:25;4.63;;;4.23;;
13291;SDS011;6714;53.056;8.690;2023-04-01T04:28:07;4.43;;;4.03;;
13291;SDS011;6714;53.056;8.690;2023-04-01T04:30:50;3.87;;;3.57;;
13291;SDS011;6714;53.056;8.690;2023-04-01T04:33:32;4.00;;;3.63;;
13291;SDS011;6714;53.056;8.690;2023-04-01T04:36:15;3.53;;;3.33;;
13291;SDS011;6714;53.056;8.690;2023-04-01T04:38:58;3.87;;;3.60;;
13291;SDS011;6714;53.056;8.690;2023-04-01T04:41:42;5.37;;;4.93;;
13291;SDS011;6714;53.056;8.690;2023-04-01T04:44:24;3.50;;;3.23;;
13291;SDS011;6714;53.056;8.690;2023-04-01T04:47:06;4.43;;;4.03;;
13291;SDS011;6714;53.056;8.690;2023-04-01T04:49:48;3.67;;;3.37;;
13291;SDS011;6714;53.056;8.690;2023-04-01T04:52:32;5.07;;;3.80;;
13291;SDS011;6714;53.056;8.690;2023-04-01T04:55:14;2.83;;;2.63;;
13291;SDS011;6714;53.056;8.690;2023-04-01T04:57:56;2.73;;;2.53;;
13291;SDS011;6714;53.056;8.690;2023-04-01T05:00:38;3.53;;;3.23;;
13291;SDS011;6714;53.056;8.690;2023-04-01T05:03:21;3.27;;;2.93;;
13291;SDS011;6714;53.056;8.690;2023-04-01T05:06:03;4.33;;;3.93;;
13291;SDS011;6714;53.056;8.690;2023-04-01T05:08:47;3.07;;;2.87;;
13291;SDS011;6714;53.056;8.690;2023-04-01T05:11:29;2.70;;;2.50;;
13291;SDS011;6714;53.056;8.690;2023-04-01T05:14:12;4.53;;;3.37;;
13291;SDS011;6714;53.056;8.690;2023-04-01T05:16:54;3.13;;;2.87;;
13291;SDS011;6714;53.056;8.690;2023-04-01T05:19:36;3.13;;;2.50;;
13291;SDS011;6714;53.056;8.690;2023-04-01T05:22:19;3.63;;;3.43;;
13291;SDS011;6714;53.056;8.690;2023-04-01T05:25:02;3.37;;;3.07;;
13291;SDS011;6714;53.056;8.690;2023-04-01T05:27:44;2.57;;;2.40;;
13291;SDS011;6714;53.056;8.690;2023-04-01T05:30:27;4.00;;;3.70;;
13291;SDS011;6714;53.056;8.690;2023-04-01T05:33:09;3.10;;;2.80;;
13291;SDS011;6714;53.056;8.690;2023-04-01T05:35:51;2.83;;;2.53;;
13291;SDS011;6714;53.056;8.690;2023-04-01T05:38:34;4.10;;;3.20;;
13291;SDS011;6714;53.056;8.690;2023-04-01T05:41:17;3.53;;;3.23;;
13291;SDS011;6714;53.056;8.690;2023-04-01T05:43:59;2.87;;;2.63;;
13291;SDS011;6714;53.056;8.690;2023-04-01T05:46:41;3.10;;;2.90;;
13291;SDS011;6714;53.056;8.690;2023-04-01T05:49:24;3.53;;;3.23;;
13291;SDS011;6714;53.056;8.690;2023-04-01T05:52:06;2.80;;;2.57;;
13291;SDS011;6714;53.056;8.690;2023-04-01T05:54:48;3.00;;;2.13;;
13291;SDS011;6714;53.056;8.690;2023-04-01T05:57:32;2.37;;;2.20;;
13291;SDS011;6714;53.056;8.690;2023-04-01T06:00:15;3.27;;;2.63;;
13291;SDS011;6714;53.056;8.690;2023-04-01T06:02:59;2.00;;;1.80;;
13291;SDS011;6714;53.056;8.690;2023-04-01T06:05:42;2.30;;;2.20;;
13291;SDS011;6714;53.056;8.690;2023-04-01T06:08:24;2.40;;;2.20;;
13291;SDS011;6714;53.056;8.690;2023-04-01T06:11:12;2.37;;;2.17;;
13291;SDS011;6714;53.056;8.690;2023-04-01T06:14:04;2.97;;;2.40;;
13291;SDS011;6714;53.056;8.690;2023-04-01T06:16:53;2.07;;;1.97;;
13291;SDS011;6714;53.056;8.690;2023-04-01T06:19:42;1.90;;;1.80;;
13291;SDS011;6714;53.056;8.690;2023-04-01T06:22:35;2.23;;;2.00;;
13291;SDS011;6714;53.056;8.690;2023-04-01T06:28:34;2.70;;;2.47;;
13291;SDS011;6714;53.056;8.690;2023-04-01T06:34:30;2.20;;;2.10;;
13291;SDS011;6714;53.056;8.690;2023-04-01T06:40:20;3.60;;;2.20;;
13291;SDS011;6714;53.056;8.690;2023-04-01T06:43:05;2.57;;;2.20;;
13291;SDS011;6714;53.056;8.690;2023-04-01T06:45:52;2.60;;;2.50;;
13291;SDS011;6714;53.056;8.690;2023-04-01T06:48:51;2.17;;;2.07;;
13291;SDS011;6714;53.056;8.690;2023-04-01T06:51:39;2.40;;;1.90;;
13291;SDS011;6714;53.056;8.690;2023-04-01T06:54:25;1.93;;;1.83;;
13291;SDS011;6714;53.056;8.690;2023-04-01T06:57:16;2.00;;;1.90;;
13291;SDS011;6714;53.056;8.690;2023-04-01T07:00:02;2.43;;;2.23;;
13291;SDS011;6714;53.056;8.690;2023-04-01T07:02:45;2.10;;;1.90;;
13291;SDS011;6714;53.056;8.690;2023-04-01T07:05:33;2.43;;;2.20;;
13291;SDS011;6714;53.056;8.690;2023-04-01T07:08:20;2.20;;;2.00;;
13291;SDS011;6714;53.056;8.690;2023-04-01T07:11:04;1.90;;;1.80;;
13291;SDS011;6714;53.056;8.690;2023-04-01T07:13:47;2.03;;;1.93;;
13291;SDS011;6714;53.056;8.690;2023-04-01T07:16:31;2.03;;;1.90;;
13291;SDS011;6714;53.056;8.690;2023-04-01T07:19:16;2.13;;;2.03;;
13291;SDS011;6714;53.056;8.690;2023-04-01T07:22:01;2.10;;;2.00;;
13291;SDS011;6714;53.056;8.690;2023-04-01T07:24:46;1.87;;;1.77;;
13291;SDS011;6714;53.056;8.690;2023-04-01T07:27:29;1.70;;;1.60;;
13291;SDS011;6714;53.056;8.690;2023-04-01T07:30:13;1.30;;;1.30;;
13291;SDS011;6714;53.056;8.690;2023-04-01T07:32:56;1.40;;;1.40;;
13291;SDS011;6714;53.056;8.690;2023-04-01T07:35:43;1.17;;;1.17;;
13291;SDS011;6714;53.056;8.690;2023-04-01T07:38:29;1.60;;;1.50;;
13291;SDS011;6714;53.056;8.690;2023-04-01T07:41:19;1.83;;;1.70;;
13291;SDS011;6714;53.056;8.690;2023-04-01T07:44:07;1.43;;;1.30;;
13291;SDS011;6714;53.056;8.690;2023-04-01T07:46:54;1.77;;;1.67;;
13291;SDS011;6714;53.056;8.690;2023-04-01T07:49:40;1.60;;;1.50;;
13291;SDS011;6714;53.056;8.690;2023-04-01T07:52:26;1.60;;;1.50;;
13291;SDS011;6714;53.056;8.690;2023-04-01T07:55:13;1.40;;;1.30;;
13291;SDS011;6714;53.056;8.690;2023-04-01T07:57:59;1.70;;;1.30;;
13291;SDS011;6714;53.056;8.690;2023-04-01T08:00:45;2.40;;;2.00;;
13291;SDS011;6714;53.056;8.690;2023-04-01T08:03:36;1.97;;;1.87;;
13291;SDS011;6714;53.056;8.690;2023-04-01T08:06:19;2.03;;;1.57;;
13291;SDS011;6714;53.056;8.690;2023-04-01T08:09:07;3.17;;;1.97;;
13291;SDS011;6714;53.056;8.690;2023-04-01T08:11:54;1.60;;;1.50;;
13291;SDS011;6714;53.056;8.690;2023-04-01T08:14:43;1.67;;;1.57;;
13291;SDS011;6714;53.056;8.690;2023-04-01T08:17:30;2.00;;;1.80;;
13291;SDS011;6714;53.056;8.690;2023-04-01T08:20:16;1.13;;;1.13;;
13291;SDS011;6714;53.056;8.690;2023-04-01T08:23:02;1.40;;;1.30;;
13291;SDS011;6714;53.056;8.690;2023-04-01T08:25:52;1.70;;;1.60;;
13291;SDS011;6714;53.056;8.690;2023-04-01T08:28:37;1.47;;;1.30;;
13291;SDS011;6714;53.056;8.690;2023-04-01T08:31:24;1.20;;;1.20;;
13291;SDS011;6714;53.056;8.690;2023-04-01T08:34:08;1.33;;;1.23;;
13291;SDS011;6714;53.056;8.690;2023-04-01T08:36:52;3.97;;;1.47;;
13291;SDS011;6714;53.056;8.690;2023-04-01T08:39:36;1.50;;;1.40;;
13291;SDS011;6714;53.056;8.690;2023-04-01T08:42:30;3.17;;;1.77;;
13291;SDS011;6714;53.056;8.690;2023-04-01T08:48:20;2.20;;;2.10;;
13291;SDS011;6714;53.056;8.690;2023-04-01T08:54:15;1.40;;;1.40;;
13291;SDS011;6714;53.056;8.690;2023-04-01T08:57:01;1.27;;;1.27;;
13291;SDS011;6714;53.056;8.690;2023-04-01T08:59:50;1.53;;;1.43;;
13291;SDS011;6714;53.056;8.690;2023-04-01T09:02:43;1.40;;;1.40;;
13291;SDS011;6714;53.056;8.690;2023-04-01T09:05:34;1.37;;;1.27;;
13291;SDS011;6714;53.056;8.690;2023-04-01T09:08:25;1.87;;;1.77;;
13291;SDS011;6714;53.056;8.690;2023-04-01T09:11:17;1.90;;;1.70;;
13291;SDS011;6714;53.056;8.690;2023-04-01T09:14:06;2.50;;;1.43;;
13291;SDS011;6714;53.056;8.690;2023-04-01T09:17:01;1.00;;;1.00;;
13291;SDS011;6714;53.056;8.690;2023-04-01T09:19:49;1.87;;;1.30;;
13291;SDS011;6714;53.056;8.690;2023-04-01T09:22:44;1.43;;;1.33;;
13291;SDS011;6714;53.056;8.690;2023-04-01T09:25:38;1.10;;;1.10;;
13291;SDS011;6714;53.056;8.690;2023-04-01T09:28:28;0.87;;;0.87;;
13291;SDS011;6714;53.056;8.690;2023-04-01T09:31:15;1.13;;;1.13;;
13291;SDS011;6714;53.056;8.690;2023-04-01T09:34:14;0.93;;;0.93;;
13291;SDS011;6714;53.056;8.690;2023-04-01T09:40:13;1.00;;;1.00;;
13291;SDS011;6714;53.056;8.690;2023-04-01T09:46:11;1.00;;;1.00;;
13291;SDS011;6714;53.056;8.690;2023-04-01T09:52:10;1.40;;;1.30;;
13291;SDS011;6714;53.056;8.690;2023-04-01T10:01:18;1.10;;;1.10;;
13291;SDS011;6714;53.056;8.690;2023-04-01T10:04:22;1.40;;;1.40;;
13291;SDS011;6714;53.056;8.690;2023-04-01T10:07:26;1.10;;;1.10;;
13291;SDS011;6714;53.056;8.690;2023-04-01T10:10:30;1.00;;;1.00;;
13291;SDS011;6714;53.056;8.690;2023-04-01T10:13:35;1.20;;;1.20;;
13291;SDS011;6714;53.056;8.690;2023-04-01T10:19:31;0.97;;;0.97;;
13291;SDS011;6714;53.056;8.690;2023-04-01T10:22:18;0.90;;;0.90;;
13291;SDS011;6714;53.056;8.690;2023-04-01T10:31:24;0.90;;;0.90;;
13291;SDS011;6714;53.056;8.690;2023-04-01T10:37:17;0.50;;;0.50;;
13291;SDS011;6714;53.056;8.690;2023-04-01T10:46:27;0.50;;;0.50;;
13291;SDS011;6714;53.056;8.690;2023-04-01T10:49:28;0.40;;;0.40;;
13291;SDS011;6714;53.056;8.690;2023-04-01T10:52:24;0.40;;;0.40;;
13291;SDS011;6714;53.056;8.690;2023-04-01T10:55:25;0.27;;;0.27;;
13291;SDS011;6714;53.056;8.690;2023-04-01T11:04:33;0.30;;;0.30;;
13291;SDS011;6714;53.056;8.690;2023-04-01T11:07:47;0.40;;;0.40;;
13291;SDS011;6714;53.056;8.690;2023-04-01T11:13:56;0.33;;;0.30;;
13291;SDS011;6714;53.056;8.690;2023-04-01T11:22:44;0.30;;;0.30;;
13291;SDS011;6714;53.056;8.690;2023-04-01T11:25:38;0.40;;;0.40;;
13291;SDS011;6714;53.056;8.690;2023-04-01T11:31:45;0.53;;;0.40;;
13291;SDS011;6714;53.056;8.690;2023-04-01T11:34:43;0.40;;;0.40;;
13291;SDS011;6714;53.056;8.690;2023-04-01T11:37:31;0.50;;;0.50;;
13291;SDS011;6714;53.056;8.690;2023-04-01T11:40:17;0.37;;;0.37;;
13291;SDS011;6714;53.056;8.690;2023-04-01T11:43:08;0.50;;;0.50;;
13291;SDS011;6714;53.056;8.690;2023-04-01T11:45:56;0.40;;;0.40;;
13291;SDS011;6714;53.056;8.690;2023-04-01T11:48:51;0.30;;;0.30;;
13291;SDS011;6714;53.056;8.690;2023-04-01T11:51:41;0.43;;;0.43;;
13291;SDS011;6714;53.056;8.690;2023-04-01T11:54:34;0.53;;;0.53;;
13291;SDS011;6714;53.056;8.690;2023-04-01T11:57:28;0.30;;;0.30;;
13291;SDS011;6714;53.056;8.690;2023-04-01T12:00:23;0.40;;;0.40;;
13291;SDS011;6714;53.056;8.690;2023-04-01T12:03:18;0.60;;;0.60;;
13291;SDS011;6714;53.056;8.690;2023-04-01T12:06:05;0.50;;;0.50;;
13291;SDS011;6714;53.056;8.690;2023-04-01T12:08:51;0.53;;;0.50;;
13291;SDS011;6714;53.056;8.690;2023-04-01T12:11:38;1.40;;;0.50;;
13291;SDS011;6714;53.056;8.690;2023-04-01T12:14:27;0.40;;;0.40;;
13291;SDS011;6714;53.056;8.690;2023-04-01T12:17:18;0.60;;;0.60;;
13291;SDS011;6714;53.056;8.690;2023-04-01T12:20:20;0.43;;;0.43;;
13291;SDS011;6714;53.056;8.690;2023-04-01T12:23:08;0.40;;;0.40;;
13291;SDS011;6714;53.056;8.690;2023-04-01T12:25:55;0.57;;;0.43;;
13291;SDS011;6714;53.056;8.690;2023-04-01T12:28:41;0.60;;;0.60;;
13291;SDS011;6714;53.056;8.690;2023-04-01T12:31:27;0.50;;;0.50;;
13291;SDS011;6714;53.056;8.690;2023-04-01T12:34:21;0.30;;;0.30;;
13291;SDS011;6714;53.056;8.690;2023-04-01T12:37:08;0.30;;;0.30;;
13291;SDS011;6714;53.056;8.690;2023-04-01T12:40:01;0.60;;;0.60;;
13291;SDS011;6714;53.056;8.690;2023-04-01T12:42:47;0.50;;;0.50;;
13291;SDS011;6714;53.056;8.690;2023-04-01T12:45:33;0.80;;;0.80;;
13291;SDS011;6714;53.056;8.690;2023-04-01T12:54:31;0.60;;;0.60;;
13291;SDS011;6714;53.056;8.690;2023-04-01T12:57:28;0.50;;;0.50;;
13291;SDS011;6714;53.056;8.690;2023-04-01T13:00:24;0.40;;;0.40;;
13291;SDS011;6714;53.056;8.690;2023-04-01T13:03:13;0.73;;;0.50;;
13291;SDS011;6714;53.056;8.690;2023-04-01T13:06:09;0.40;;;0.40;;
13291;SDS011;6714;53.056;8.690;2023-04-01T13:09:04;0.57;;;0.57;;
13291;SDS011;6714;53.056;8.690;2023-04-01T13:12:03;0.50;;;0.50;;
13291;SDS011;6714;53.056;8.690;2023-04-01T13:15:00;0.43;;;0.43;;
13291;SDS011;6714;53.056;8.690;2023-04-01T13:17:50;0.40;;;0.40;;
13291;SDS011;6714;53.056;8.690;2023-04-01T13:20:37;0.40;;;0.40;;
13291;SDS011;6714;53.056;8.690;2023-04-01T13:23:30;0.40;;;0.40;;
13291;SDS011;6714;53.056;8.690;2023-04-01T13:26:17;0.40;;;0.40;;
13291;SDS011;6714;53.056;8.690;2023-04-01T13:29:04;0.40;;;0.40;;
13291;SDS011;6714;53.056;8.690;2023-04-01T13:31:51;0.30;;;0.30;;
13291;SDS011;6714;53.056;8.690;2023-04-01T13:34:39;0.40;;;0.40;;
13291;SDS011;6714;53.056;8.690;2023-04-01T13:37:31;0.30;;;0.30;;
13291;SDS011;6714;53.056;8.690;2023-04-01T13:40:21;0.40;;;0.40;;
13291;SDS011;6714;53.056;8.690;2023-04-01T13:43:08;0.40;;;0.40;;
13291;SDS011;6714;53.056;8.690;2023-04-01T13:46:08;0.40;;;0.40;;
13291;SDS011;6714;53.056;8.690;2023-04-01T13:49:01;0.50;;;0.50;;
13291;SDS011;6714;53.056;8.690;2023-04-01T13:51:53;0.30;;;0.30;;
13291;SDS011;6714;53.056;8.690;2023-04-01T13:54:41;0.50;;;0.43;;
13291;SDS011;6714;53.056;8.690;2023-04-01T13:57:34;0.30;;;0.30;;
13291;SDS011;6714;53.056;8.690;2023-04-01T14:00:23;0.30;;;0.30;;
13291;SDS011;6714;53.056;8.690;2023-04-01T14:03:18;0.33;;;0.33;;
13291;SDS011;6714;53.056;8.690;2023-04-01T14:06:05;0.30;;;0.30;;
13291;SDS011;6714;53.056;8.690;2023-04-01T14:08:55;1.23;;;0.40;;
13291;SDS011;6714;53.056;8.690;2023-04-01T14:11:44;0.30;;;0.30;;
13291;SDS011;6714;53.056;8.690;2023-04-01T14:14:31;0.40;;;0.40;;
13291;SDS011;6714;53.056;8.690;2023-04-01T14:17:19;0.30;;;0.30;;
13291;SDS011;6714;53.056;8.690;2023-04-01T14:23:17;0.60;;;0.47;;
13291;SDS011;6714;53.056;8.690;2023-04-01T14:29:02;0.43;;;0.43;;
13291;SDS011;6714;53.056;8.690;2023-04-01T14:31:58;0.50;;;0.50;;
13291;SDS011;6714;53.056;8.690;2023-04-01T14:37:55;0.60;;;0.60;;
13291;SDS011;6714;53.056;8.690;2023-04-01T14:40:45;0.47;;;0.47;;
13291;SDS011;6714;53.056;8.690;2023-04-01T14:46:40;0.60;;;0.60;;
13291;SDS011;6714;53.056;8.690;2023-04-01T14:49:30;0.53;;;0.53;;
13291;SDS011;6714;53.056;8.690;2023-04-01T14:52:15;0.70;;;0.70;;
13291;SDS011;6714;53.056;8.690;2023-04-01T14:54:58;1.40;;;1.30;;
13291;SDS011;6714;53.056;8.690;2023-04-01T14:57:43;1.20;;;1.10;;
13291;SDS011;6714;53.056;8.690;2023-04-01T15:00:47;1.30;;;1.20;;
13291;SDS011;6714;53.056;8.690;2023-04-01T15:03:30;1.00;;;0.83;;
13291;SDS011;6714;53.056;8.690;2023-04-01T15:06:21;0.87;;;0.87;;
13291;SDS011;6714;53.056;8.690;2023-04-01T15:09:06;0.70;;;0.70;;
13291;SDS011;6714;53.056;8.690;2023-04-01T15:11:55;0.93;;;0.93;;
13291;SDS011;6714;53.056;8.690;2023-04-01T15:14:43;0.97;;;0.97;;
13291;SDS011;6714;53.056;8.690;2023-04-01T15:23:39;1.83;;;1.70;;
13291;SDS011;6714;53.056;8.690;2023-04-01T15:26:27;1.40;;;1.30;;
13291;SDS011;6714;53.056;8.690;2023-04-01T15:29:26;1.47;;;1.37;;
13291;SDS011;6714;53.056;8.690;2023-04-01T15:32:16;1.90;;;1.80;;
13291;SDS011;6714;53.056;8.690;2023-04-01T15:34:59;1.80;;;1.70;;
13291;SDS011;6714;53.056;8.690;2023-04-01T15:37:46;1.90;;;1.80;;
13291;SDS011;6714;53.056;8.690;2023-04-01T15:40:33;1.90;;;1.77;;
13291;SDS011;6714;53.056;8.690;2023-04-01T15:43:22;1.50;;;1.40;;
13291;SDS011;6714;53.056;8.690;2023-04-01T15:46:09;0.90;;;0.90;;
13291;SDS011;6714;53.056;8.690;2023-04-01T15:49:11;1.53;;;1.43;;
13291;SDS011;6714;53.056;8.690;2023-04-01T15:51:56;1.90;;;1.80;;
13291;SDS011;6714;53.056;8.690;2023-04-01T15:54:52;1.50;;;1.40;;
13291;SDS011;6714;53.056;8.690;2023-04-01T15:57:38;2.40;;;1.90;;
13291;SDS011;6714;53.056;8.690;2023-04-01T16:00:23;1.70;;;1.60;;
13291;SDS011;6714;53.056;8.690;2023-04-01T16:03:14;1.43;;;1.33;;
13291;SDS011;6714;53.056;8.690;2023-04-01T16:06:23;2.07;;;1.97;;
13291;SDS011;6714;53.056;8.690;2023-04-01T16:09:15;1.30;;;1.30;;
13291;SDS011;6714;53.056;8.690;2023-04-01T16:12:03;1.70;;;1.60;;
13291;SDS011;6714;53.056;8.690;2023-04-01T16:14:52;1.83;;;1.70;;
13291;SDS011;6714;53.056;8.690;2023-04-01T16:17:53;1.70;;;1.50;;
13291;SDS011;6714;53.056;8.690;2023-04-01T16:20:45;1.47;;;1.37;;
13291;SDS011;6714;53.056;8.690;2023-04-01T16:23:33;1.80;;;1.70;;
13291;SDS011;6714;53.056;8.690;2023-04-01T16:26:19;2.00;;;1.37;;
13291;SDS011;6714;53.056;8.690;2023-04-01T16:29:08;1.67;;;1.57;;
13291;SDS011;6714;53.056;8.690;2023-04-01T16:31:52;1.50;;;1.40;;
13291;SDS011;6714;53.056;8.690;2023-04-01T16:34:38;1.40;;;1.30;;
13291;SDS011;6714;53.056;8.690;2023-04-01T16:37:21;1.33;;;1.23;;
13291;SDS011;6714;53.056;8.690;2023-04-01T16:40:13;1.83;;;1.50;;
13291;SDS011;6714;53.056;8.690;2023-04-01T16:43:04;1.77;;;1.67;;
13291;SDS011;6714;53.056;8.690;2023-04-01T16:45:53;1.50;;;1.30;;
13291;SDS011;6714;53.056;8.690;2023-04-01T16:48:43;1.53;;;1.37;;
13291;SDS011;6714;53.056;8.690;2023-04-01T16:51:32;1.40;;;1.30;;
13291;SDS011;6714;53.056;8.690;2023-04-01T16:54:18;1.70;;;1.60;;
13291;SDS011;6714;53.056;8.690;2023-04-01T16:57:14;1.77;;;1.40;;
13291;SDS011;6714;53.056;8.690;2023-04-01T17:00:01;2.20;;;1.53;;
13291;SDS011;6714;53.056;8.690;2023-04-01T17:02:45;2.13;;;1.93;;
13291;SDS011;6714;53.056;8.690;2023-04-01T17:05:36;1.50;;;1.40;;
13291;SDS011;6714;53.056;8.690;2023-04-01T17:08:22;2.57;;;2.10;;
13291;SDS011;6714;53.056;8.690;2023-04-01T17:11:11;2.13;;;1.93;;
13291;SDS011;6714;53.056;8.690;2023-04-01T17:14:00;2.20;;;1.77;;
13291;SDS011;6714;53.056;8.690;2023-04-01T17:16:51;2.43;;;2.23;;
13291;SDS011;6714;53.056;8.690;2023-04-01T17:22:39;2.57;;;1.90;;
13291;SDS011;6714;53.056;8.690;2023-04-01T17:25:33;2.43;;;2.17;;
13291;SDS011;6714;53.056;8.690;2023-04-01T17:28:23;2.50;;;2.20;;
13291;SDS011;6714;53.056;8.690;2023-04-01T17:31:12;2.27;;;2.07;;
13291;SDS011;6714;53.056;8.690;2023-04-01T17:34:01;2.23;;;2.03;;
13291;SDS011;6714;53.056;8.690;2023-04-01T17:36:51;1.80;;;1.70;;
13291;SDS011;6714;53.056;8.690;2023-04-01T17:39:42;2.20;;;2.10;;
13291;SDS011;6714;53.056;8.690;2023-04-01T17:42:31;2.23;;;2.10;;
13291;SDS011;6714;53.056;8.690;2023-04-01T17:45:19;2.50;;;2.30;;
13291;SDS011;6714;53.056;8.690;2023-04-01T17:48:08;1.80;;;1.67;;
13291;SDS011;6714;53.056;8.690;2023-04-01T17:51:00;2.00;;;1.90;;
13291;SDS011;6714;53.056;8.690;2023-04-01T17:53:47;4.13;;;2.80;;
13291;SDS011;6714;53.056;8.690;2023-04-01T17:56:44;2.57;;;2.20;;
13291;SDS011;6714;53.056;8.690;2023-04-01T17:59:28;1.90;;;1.80;;
13291;SDS011;6714;53.056;8.690;2023-04-01T18:02:17;3.87;;;2.73;;
13291;SDS011;6714;53.056;8.690;2023-04-01T18:05:18;4.20;;;2.50;;
13291;SDS011;6714;53.056;8.690;2023-04-01T18:08:05;1.90;;;1.80;;
13291;SDS011;6714;53.056;8.690;2023-04-01T18:10:54;3.57;;;2.50;;
13291;SDS011;6714;53.056;8.690;2023-04-01T18:19:37;1.70;;;1.60;;
13291;SDS011;6714;53.056;8.690;2023-04-01T18:22:23;2.77;;;2.30;;
13291;SDS011;6714;53.056;8.690;2023-04-01T18:25:12;2.63;;;2.43;;
13291;SDS011;6714;53.056;8.690;2023-04-01T18:27:59;2.50;;;2.30;;
13291;SDS011;6714;53.056;8.690;2023-04-01T18:30:50;2.53;;;2.23;;
13291;SDS011;6714;53.056;8.690;2023-04-01T18:33:34;2.33;;;2.13;;
13291;SDS011;6714;53.056;8.690;2023-04-01T18:36:19;3.37;;;2.53;;
13291;SDS011;6714;53.056;8.690;2023-04-01T18:39:07;4.07;;;2.60;;
13291;SDS011;6714;53.056;8.690;2023-04-01T18:41:54;2.37;;;2.00;;
13291;SDS011;6714;53.056;8.690;2023-04-01T18:44:42;2.13;;;1.93;;
13291;SDS011;6714;53.056;8.690;2023-04-01T18:47:30;2.87;;;2.40;;
13291;SDS011;6714;53.056;8.690;2023-04-01T18:50:19;3.57;;;2.00;;